Airfield :
LOGIN :

Register | Disclaimer

   EN    FR    IT 

 










Legend :    VFR   Marginal VFR   IFR   Intensive IFR   Very Intensive IFR
Visi :
Ceiling :
>= 8 km
>= 3000ft
5 to 8 km
1000 to 3000 ft
1500m to 5 km
500 to 1000 ft
800 to 1500m
200 to 500 ft
< 800m
< 200 ft
Symbols :   Thunderstorms  Fog  Heavy snow  Heavy precipitations  Wind > 20 kt
SIGMETs :     Misc.  Thunderstorms  Icing  Turbulence  Mountain Waves  Volcanic Ashes







- Airport Elevation : 302 ft
- IATA code : MAH


LEMH - Menorca

CURRENT METAR :
  • 262300Z AUTO 04016KT 9999 4200S OVC012/// 12/11 Q1012

EXPIRED METARs :
  • 262230Z 04017KT 4000 DZ BKN010 12/11 Q1011
  • 262200Z 04017KT 4000 DZ BKN010 13/11 Q1011
  • 262130Z 04016KT 7000 DZ BKN010 14/11 Q1011
  • 262100Z 04017KT 9000 BKN012 14/12 Q1010
  • 262030Z 04016KT 9000 BKN013 15/11 Q1010

TAF AMD TAF LEMH
Valid from the 26 at 22:00 until the 27 at 21:00 UTC


262239Z 2622/2721 03013KT 9999 BKN010 TX17/2712Z TN07/2706Z
PROB40
TEMPO 2622/2715 4000 RA
TEMPO 2703/2716 03015G25KT
No reported NOTAMs for that airfield.



MET'MAP, your aeronautical weather chart ! - Copyright ORBIFLY December 2007 - Disclaimer

ORBIFLY MET'MAP TEAM :

Programming & Development : Alexandra Zaïnal
Concept & Development : Baudouin d'Aumeries
Co-Development & Prog : Marc-Olivier Méhu
Technical & hardware support : Manuel Goepfert

Contact : metmap@orbifly.com




SOURCES & CREDITS :

   NOAA